sensor_id;sensor_type;location;lat;lon;timestamp;pressure;altitude;pressure_sealevel;temperature;humidity
51449;BME280;37520;46.570;14.268;2022-09-03T00:03:30;95699.03;;;13.01;89.59
51449;BME280;37520;46.570;14.268;2022-09-03T00:13:06;95700.50;;;12.82;89.79
51449;BME280;37520;46.570;14.268;2022-09-03T00:23:17;95698.53;;;12.67;88.31
51449;BME280;37520;46.570;14.268;2022-09-03T00:33:22;95707.94;;;12.47;89.54
51449;BME280;37520;46.570;14.268;2022-09-03T01:04:11;95721.69;;;12.12;89.48
51449;BME280;37520;46.570;14.268;2022-09-03T01:25:00;95728.59;;;11.90;90.24
51449;BME280;37520;46.570;14.268;2022-09-03T01:35:33;95738.75;;;11.76;91.20
51449;BME280;37520;46.570;14.268;2022-09-03T02:06:36;95768.06;;;11.48;90.04
51449;BME280;37520;46.570;14.268;2022-09-03T02:16:38;95758.94;;;11.38;90.86
51449;BME280;37520;46.570;14.268;2022-09-03T02:26:39;95768.34;;;11.29;90.67
51449;BME280;37520;46.570;14.268;2022-09-03T02:36:44;95779.91;;;11.23;92.58
51449;BME280;37520;46.570;14.268;2022-09-03T02:46:51;95769.19;;;11.12;90.44
51449;BME280;37520;46.570;14.268;2022-09-03T02:56:53;95779.44;;;11.09;93.62
51449;BME280;37520;46.570;14.268;2022-09-03T03:06:55;95767.66;;;11.00;92.33
51449;BME280;37520;46.570;14.268;2022-09-03T03:16:56;95771.75;;;10.90;93.22
51449;BME280;37520;46.570;14.268;2022-09-03T03:26:58;95768.88;;;10.92;93.33
51449;BME280;37520;46.570;14.268;2022-09-03T03:36:59;95766.78;;;10.94;93.10
51449;BME280;37520;46.570;14.268;2022-09-03T03:47:01;95755.13;;;10.95;93.65
51449;BME280;37520;46.570;14.268;2022-09-03T03:57:02;95757.47;;;10.91;94.13
51449;BME280;37520;46.570;14.268;2022-09-03T04:07:04;95771.91;;;10.84;93.58
51449;BME280;37520;46.570;14.268;2022-09-03T04:17:05;95768.47;;;10.83;96.00
51449;BME280;37520;46.570;14.268;2022-09-03T04:27:07;95761.81;;;10.80;94.25
51449;BME280;37520;46.570;14.268;2022-09-03T04:37:08;95783.59;;;10.71;94.19
51449;BME280;37520;46.570;14.268;2022-09-03T04:47:10;95780.78;;;10.77;96.45
51449;BME280;37520;46.570;14.268;2022-09-03T04:57:11;95789.75;;;10.76;95.92
51449;BME280;37520;46.570;14.268;2022-09-03T05:07:14;95798.66;;;10.70;97.60
51449;BME280;37520;46.570;14.268;2022-09-03T05:17:15;95805.81;;;10.87;97.36
51449;BME280;37520;46.570;14.268;2022-09-03T05:27:17;95798.28;;;10.95;96.97
51449;BME280;37520;46.570;14.268;2022-09-03T05:37:18;95794.56;;;11.13;99.82
51449;BME280;37520;46.570;14.268;2022-09-03T05:47:19;95795.00;;;11.84;97.48
51449;BME280;37520;46.570;14.268;2022-09-03T05:57:21;95788.88;;;13.20;90.81
51449;BME280;37520;46.570;14.268;2022-09-03T06:07:22;95789.44;;;14.49;82.85
51449;BME280;37520;46.570;14.268;2022-09-03T06:17:26;95787.63;;;14.65;78.30
51449;BME280;37520;46.570;14.268;2022-09-03T06:27:27;95792.34;;;14.42;80.73
51449;BME280;37520;46.570;14.268;2022-09-03T06:37:29;95790.81;;;15.08;81.84
51449;BME280;37520;46.570;14.268;2022-09-03T06:47:30;95789.06;;;15.95;76.18
51449;BME280;37520;46.570;14.268;2022-09-03T06:57:32;95794.06;;;16.57;71.24
51449;BME280;37520;46.570;14.268;2022-09-03T07:07:33;95786.88;;;16.97;72.42
51449;BME280;37520;46.570;14.268;2022-09-03T07:17:35;95780.84;;;16.81;68.25
51449;BME280;37520;46.570;14.268;2022-09-03T07:27:37;95790.91;;;16.89;68.85
51449;BME280;37520;46.570;14.268;2022-09-03T07:37:42;95778.34;;;17.54;69.33
51449;BME280;37520;46.570;14.268;2022-09-03T07:47:47;95770.91;;;17.75;67.49
51449;BME280;37520;46.570;14.268;2022-09-03T07:57:55;95781.50;;;18.48;64.51
51449;BME280;37520;46.570;14.268;2022-09-03T08:07:59;95774.59;;;18.99;60.02
51449;BME280;37520;46.570;14.268;2022-09-03T08:18:01;95759.44;;;18.75;59.85
51449;BME280;37520;46.570;14.268;2022-09-03T08:28:02;95759.72;;;18.74;57.68
51449;BME280;37520;46.570;14.268;2022-09-03T08:38:03;95764.50;;;19.71;57.28
51449;BME280;37520;46.570;14.268;2022-09-03T08:48:17;95761.78;;;20.26;54.75
51449;BME280;37520;46.570;14.268;2022-09-03T08:58:25;95764.09;;;20.56;53.27
51449;BME280;37520;46.570;14.268;2022-09-03T09:29:18;95748.34;;;21.63;51.04
51449;BME280;37520;46.570;14.268;2022-09-03T09:39:21;95749.81;;;21.78;50.92
51449;BME280;37520;46.570;14.268;2022-09-03T09:49:34;95731.88;;;22.22;49.92
51449;BME280;37520;46.570;14.268;2022-09-03T09:59:36;95740.00;;;22.66;51.14
51449;BME280;37520;46.570;14.268;2022-09-03T10:09:38;95737.22;;;23.66;50.18
51449;BME280;37520;46.570;14.268;2022-09-03T10:19:45;95726.53;;;23.40;47.41
51449;BME280;37520;46.570;14.268;2022-09-03T10:30:09;95730.94;;;23.53;47.55
51449;BME280;37520;46.570;14.268;2022-09-03T10:40:23;95708.34;;;23.28;47.15
51449;BME280;37520;46.570;14.268;2022-09-03T10:51:14;95701.41;;;23.87;50.62
51449;BME280;37520;46.570;14.268;2022-09-03T11:01:03;95703.31;;;24.37;46.84
51449;BME280;37520;46.570;14.268;2022-09-03T11:11:13;95697.06;;;24.45;46.19
51449;BME280;37520;46.570;14.268;2022-09-03T11:21:17;95693.03;;;24.52;44.57
